sensor_id;sensor_type;location;lat;lon;timestamp;pressure;altitude;pressure_sealevel;temperature;humidity
37892;BME280;45797;47.466;9.486;2024-03-02T00:02:27;94708.66;;;8.07;76.66
37892;BME280;45797;47.466;9.486;2024-03-02T00:07:58;94702.72;;;8.05;77.09
37892;BME280;45797;47.466;9.486;2024-03-02T00:13:34;94706.66;;;7.99;76.82
37892;BME280;45797;47.466;9.486;2024-03-02T00:19:10;94704.31;;;7.96;77.27
37892;BME280;45797;47.466;9.486;2024-03-02T00:24:38;94704.78;;;7.90;77.21
37892;BME280;45797;47.466;9.486;2024-03-02T00:30:01;94718.19;;;7.86;77.43
37892;BME280;45797;47.466;9.486;2024-03-02T00:35:27;94717.84;;;7.79;77.44
37892;BME280;45797;47.466;9.486;2024-03-02T00:40:48;94714.88;;;7.72;77.50
37892;BME280;45797;47.466;9.486;2024-03-02T00:46:18;94710.06;;;7.68;77.78
37892;BME280;45797;47.466;9.486;2024-03-02T00:51:39;94715.25;;;7.68;77.58
37892;BME280;45797;47.466;9.486;2024-03-02T00:57:02;94717.97;;;7.66;77.61
37892;BME280;45797;47.466;9.486;2024-03-02T01:02:28;94724.13;;;7.65;77.50
37892;BME280;45797;47.466;9.486;2024-03-02T01:07:48;94720.00;;;7.63;77.72
37892;BME280;45797;47.466;9.486;2024-03-02T01:13:09;94727.09;;;7.61;77.77
37892;BME280;45797;47.466;9.486;2024-03-02T01:18:42;94722.84;;;7.60;77.55
37892;BME280;45797;47.466;9.486;2024-03-02T01:24:12;94718.34;;;7.62;77.45
37892;BME280;45797;47.466;9.486;2024-03-02T01:29:44;94733.03;;;7.63;77.57
37892;BME280;45797;47.466;9.486;2024-03-02T01:35:05;94743.44;;;7.63;77.49
37892;BME280;45797;47.466;9.486;2024-03-02T01:40:27;94757.88;;;7.67;77.53
37892;BME280;45797;47.466;9.486;2024-03-02T01:45:49;94750.53;;;7.72;77.57
37892;BME280;45797;47.466;9.486;2024-03-02T01:51:16;94749.34;;;7.76;77.27
37892;BME280;45797;47.466;9.486;2024-03-02T01:56:44;94755.50;;;7.75;77.58
37892;BME280;45797;47.466;9.486;2024-03-02T02:02:11;94757.06;;;7.78;77.30
37892;BME280;45797;47.466;9.486;2024-03-02T02:07:33;94771.03;;;7.77;77.53
37892;BME280;45797;47.466;9.486;2024-03-02T02:12:55;94764.75;;;7.79;77.33
37892;BME280;45797;47.466;9.486;2024-03-02T02:18:16;94771.38;;;7.83;76.81
37892;BME280;45797;47.466;9.486;2024-03-02T02:23:37;94775.53;;;7.86;77.25
37892;BME280;45797;47.466;9.486;2024-03-02T02:29:04;94757.06;;;7.89;77.46
37892;BME280;45797;47.466;9.486;2024-03-02T02:34:26;94761.44;;;7.88;77.43
37892;BME280;45797;47.466;9.486;2024-03-02T02:39:46;94741.28;;;7.90;77.29
37892;BME280;45797;47.466;9.486;2024-03-02T02:45:15;94729.91;;;7.91;76.98
37892;BME280;45797;47.466;9.486;2024-03-02T02:50:35;94733.94;;;7.84;77.39
37892;BME280;45797;47.466;9.486;2024-03-02T02:55:56;94736.22;;;7.78;77.22
37892;BME280;45797;47.466;9.486;2024-03-02T03:01:17;94752.19;;;7.73;77.32
37892;BME280;45797;47.466;9.486;2024-03-02T03:06:45;94771.16;;;7.64;77.44
37892;BME280;45797;47.466;9.486;2024-03-02T03:12:07;94775.06;;;7.58;77.79
37892;BME280;45797;47.466;9.486;2024-03-02T03:17:33;94778.03;;;7.54;77.67
37892;BME280;45797;47.466;9.486;2024-03-02T03:22:54;94766.06;;;7.51;77.96
37892;BME280;45797;47.466;9.486;2024-03-02T03:28:15;94755.03;;;7.48;78.05
37892;BME280;45797;47.466;9.486;2024-03-02T03:33:36;94761.56;;;7.42;77.64
37892;BME280;45797;47.466;9.486;2024-03-02T03:38:57;94757.75;;;7.35;78.28
37892;BME280;45797;47.466;9.486;2024-03-02T03:44:28;94770.41;;;7.28;78.36
37892;BME280;45797;47.466;9.486;2024-03-02T03:49:49;94765.44;;;7.25;77.92
37892;BME280;45797;47.466;9.486;2024-03-02T03:55:11;94770.78;;;7.24;78.03
37892;BME280;45797;47.466;9.486;2024-03-02T04:00:42;94766.84;;;7.18;77.99
37892;BME280;45797;47.466;9.486;2024-03-02T04:06:03;94769.56;;;7.16;78.39
37892;BME280;45797;47.466;9.486;2024-03-02T04:11:27;94776.31;;;7.19;78.22
37892;BME280;45797;47.466;9.486;2024-03-02T04:16:54;94763.09;;;7.22;78.07
37892;BME280;45797;47.466;9.486;2024-03-02T04:22:16;94757.63;;;7.25;78.05
37892;BME280;45797;47.466;9.486;2024-03-02T04:27:38;94761.44;;;7.21;78.02
37892;BME280;45797;47.466;9.486;2024-03-02T04:33:00;94754.66;;;7.19;78.34
37892;BME280;45797;47.466;9.486;2024-03-02T04:38:28;94754.66;;;7.19;77.94
37892;BME280;45797;47.466;9.486;2024-03-02T04:43:51;94752.06;;;7.19;78.17
37892;BME280;45797;47.466;9.486;2024-03-02T04:49:12;94746.25;;;7.15;78.46
37892;BME280;45797;47.466;9.486;2024-03-02T04:54:34;94750.75;;;7.13;78.42
37892;BME280;45797;47.466;9.486;2024-03-02T05:00:14;94755.97;;;7.13;78.29
37892;BME280;45797;47.466;9.486;2024-03-02T05:05:37;94760.59;;;7.21;78.27
37892;BME280;45797;47.466;9.486;2024-03-02T05:10:58;94761.66;;;7.29;78.06
37892;BME280;45797;47.466;9.486;2024-03-02T05:16:44;94769.72;;;7.37;77.59
37892;BME280;45797;47.466;9.486;2024-03-02T05:22:05;94771.75;;;7.45;77.82
37892;BME280;45797;47.466;9.486;2024-03-02T05:27:28;94760.84;;;7.51;77.92
37892;BME280;45797;47.466;9.486;2024-03-02T05:32:49;94766.41;;;7.58;77.91
37892;BME280;45797;47.466;9.486;2024-03-02T05:38:10;94766.91;;;7.63;77.58
37892;BME280;45797;47.466;9.486;2024-03-02T05:43:40;94771.97;;;7.64;77.77
37892;BME280;45797;47.466;9.486;2024-03-02T05:49:00;94768.22;;;7.68;77.44
37892;BME280;45797;47.466;9.486;2024-03-02T05:54:21;94771.41;;;7.72;77.13
37892;BME280;45797;47.466;9.486;2024-03-02T05:59:42;94774.69;;;7.74;77.79
37892;BME280;45797;47.466;9.486;2024-03-02T06:05:05;94775.66;;;7.73;77.76
37892;BME280;45797;47.466;9.486;2024-03-02T06:10:29;94780.28;;;7.69;77.45
37892;BME280;45797;47.466;9.486;2024-03-02T06:15:50;94773.50;;;7.67;77.63
37892;BME280;45797;47.466;9.486;2024-03-02T06:21:11;94779.56;;;7.67;77.74
37892;BME280;45797;47.466;9.486;2024-03-02T06:26:31;94777.56;;;7.71;78.20
37892;BME280;45797;47.466;9.486;2024-03-02T06:31:52;94779.47;;;7.69;77.65
37892;BME280;45797;47.466;9.486;2024-03-02T06:37:15;94781.25;;;7.68;77.63
37892;BME280;45797;47.466;9.486;2024-03-02T06:42:37;94790.59;;;7.71;77.54
37892;BME280;45797;47.466;9.486;2024-03-02T06:47:57;94788.69;;;7.73;77.81
37892;BME280;45797;47.466;9.486;2024-03-02T06:53:18;94788.34;;;7.78;77.31
37892;BME280;45797;47.466;9.486;2024-03-02T06:58:39;94785.00;;;7.76;77.43
37892;BME280;45797;47.466;9.486;2024-03-02T07:04:02;94798.41;;;7.60;77.34
37892;BME280;45797;47.466;9.486;2024-03-02T07:09:23;94793.91;;;7.62;77.65
37892;BME280;45797;47.466;9.486;2024-03-02T07:14:46;94786.53;;;7.67;77.53
37892;BME280;45797;47.466;9.486;2024-03-02T07:20:38;94791.53;;;7.70;77.55
37892;BME280;45797;47.466;9.486;2024-03-02T07:26:00;94800.56;;;7.77;77.27
37892;BME280;45797;47.466;9.486;2024-03-02T07:31:24;94793.88;;;7.84;77.26
37892;BME280;45797;47.466;9.486;2024-03-02T07:36:45;94805.03;;;7.97;76.85
37892;BME280;45797;47.466;9.486;2024-03-02T07:42:17;94800.97;;;8.05;76.56
37892;BME280;45797;47.466;9.486;2024-03-02T07:47:37;94807.63;;;8.20;76.60
37892;BME280;45797;47.466;9.486;2024-03-02T07:53:16;94803.31;;;8.30;76.75
37892;BME280;45797;47.466;9.486;2024-03-02T07:58:56;94796.59;;;8.39;76.41
37892;BME280;45797;47.466;9.486;2024-03-02T08:04:18;94785.19;;;8.40;76.19
37892;BME280;45797;47.466;9.486;2024-03-02T08:09:41;94777.13;;;8.31;76.61
37892;BME280;45797;47.466;9.486;2024-03-02T08:15:06;94772.03;;;8.30;76.92
37892;BME280;45797;47.466;9.486;2024-03-02T08:20:27;94770.50;;;8.27;76.49
37892;BME280;45797;47.466;9.486;2024-03-02T08:25:58;94768.16;;;8.36;76.83
37892;BME280;45797;47.466;9.486;2024-03-02T08:31:19;94769.03;;;8.57;76.33
37892;BME280;45797;47.466;9.486;2024-03-02T08:36:39;94764.44;;;8.81;75.93
37892;BME280;45797;47.466;9.486;2024-03-02T08:42:00;94759.97;;;9.14;74.99
37892;BME280;45797;47.466;9.486;2024-03-02T08:47:40;94758.84;;;9.37;74.76
37892;BME280;45797;47.466;9.486;2024-03-02T08:53:00;94750.28;;;9.56;74.28
37892;BME280;45797;47.466;9.486;2024-03-02T08:58:21;94739.41;;;9.82;74.14
37892;BME280;45797;47.466;9.486;2024-03-02T09:03:58;94731.25;;;10.15;73.86
37892;BME280;45797;47.466;9.486;2024-03-02T09:09:19;94734.75;;;10.35;73.30
37892;BME280;45797;47.466;9.486;2024-03-02T09:14:42;94716.84;;;10.59;72.87
37892;BME280;45797;47.466;9.486;2024-03-02T09:20:03;94715.19;;;10.68;72.56
37892;BME280;45797;47.466;9.486;2024-03-02T09:25:25;94712.03;;;10.65;72.76
37892;BME280;45797;47.466;9.486;2024-03-02T09:31:11;94707.47;;;10.57;72.90
37892;BME280;45797;47.466;9.486;2024-03-02T09:36:33;94698.41;;;10.80;73.06
37892;BME280;45797;47.466;9.486;2024-03-02T09:41:54;94696.81;;;11.07;72.10
37892;BME280;45797;47.466;9.486;2024-03-02T09:47:18;94687.59;;;11.03;72.38
37892;BME280;45797;47.466;9.486;2024-03-02T09:52:44;94680.75;;;10.82;72.76
37892;BME280;45797;47.466;9.486;2024-03-02T09:58:04;94672.75;;;10.55;73.33
37892;BME280;45797;47.466;9.486;2024-03-02T10:03:39;94669.19;;;10.37;73.86
37892;BME280;45797;47.466;9.486;2024-03-02T10:08:59;94656.34;;;10.14;74.06
37892;BME280;45797;47.466;9.486;2024-03-02T10:14:20;94643.78;;;10.08;74.13
37892;BME280;45797;47.466;9.486;2024-03-02T10:19:42;94641.56;;;10.13;74.36
37892;BME280;45797;47.466;9.486;2024-03-02T10:25:03;94638.94;;;10.03;74.27
37892;BME280;45797;47.466;9.486;2024-03-02T10:30:28;94638.41;;;9.90;74.44
37892;BME280;45797;47.466;9.486;2024-03-02T10:35:51;94628.09;;;9.98;74.47
37892;BME280;45797;47.466;9.486;2024-03-02T10:41:18;94627.41;;;10.06;74.22
37892;BME280;45797;47.466;9.486;2024-03-02T10:46:40;94617.63;;;10.08;74.08
37892;BME280;45797;47.466;9.486;2024-03-02T10:52:03;94606.19;;;10.19;73.84
37892;BME280;45797;47.466;9.486;2024-03-02T10:57:48;94603.72;;;10.17;74.03
37892;BME280;45797;47.466;9.486;2024-03-02T11:03:16;94590.00;;;10.25;73.73
37892;BME280;45797;47.466;9.486;2024-03-02T11:08:50;94597.69;;;10.46;73.65
37892;BME280;45797;47.466;9.486;2024-03-02T11:14:25;94587.94;;;10.85;72.74
37892;BME280;45797;47.466;9.486;2024-03-02T11:19:46;94571.81;;;11.17;72.03
37892;BME280;45797;47.466;9.486;2024-03-02T11:25:34;94572.72;;;11.35;71.91
37892;BME280;45797;47.466;9.486;2024-03-02T11:30:58;94570.75;;;11.47;72.32
37892;BME280;45797;47.466;9.486;2024-03-02T11:36:19;94564.81;;;11.63;71.63
37892;BME280;45797;47.466;9.486;2024-03-02T11:41:40;94561.13;;;11.38;72.07
37892;BME280;45797;47.466;9.486;2024-03-02T11:47:05;94541.72;;;11.31;72.00
37892;BME280;45797;47.466;9.486;2024-03-02T11:52:28;94533.38;;;11.35;72.10
37892;BME280;45797;47.466;9.486;2024-03-02T11:58:04;94532.16;;;11.57;71.85
37892;BME280;45797;47.466;9.486;2024-03-02T12:03:32;94524.94;;;11.87;71.36
37892;BME280;45797;47.466;9.486;2024-03-02T12:08:54;94511.94;;;12.21;70.49
37892;BME280;45797;47.466;9.486;2024-03-02T12:14:19;94501.56;;;12.37;70.30
37892;BME280;45797;47.466;9.486;2024-03-02T12:19:44;94485.03;;;12.71;69.68
37892;BME280;45797;47.466;9.486;2024-03-02T12:25:07;94468.38;;;12.96;69.31
37892;BME280;45797;47.466;9.486;2024-03-02T12:30:35;94467.53;;;13.22;69.08
37892;BME280;45797;47.466;9.486;2024-03-02T12:35:57;94459.69;;;13.38;68.55
37892;BME280;45797;47.466;9.486;2024-03-02T12:41:38;94444.44;;;13.66;68.10
37892;BME280;45797;47.466;9.486;2024-03-02T12:47:08;94438.03;;;13.85;68.29
37892;BME280;45797;47.466;9.486;2024-03-02T12:52:31;94427.66;;;14.08;67.55
37892;BME280;45797;47.466;9.486;2024-03-02T12:57:59;94419.22;;;14.28;67.20
37892;BME280;45797;47.466;9.486;2024-03-02T13:03:21;94408.03;;;14.35;67.68
37892;BME280;45797;47.466;9.486;2024-03-02T13:08:43;94401.41;;;14.63;67.00
37892;BME280;45797;47.466;9.486;2024-03-02T13:14:06;94402.47;;;14.85;66.38
37892;BME280;45797;47.466;9.486;2024-03-02T13:19:27;94383.13;;;14.62;66.78
37892;BME280;45797;47.466;9.486;2024-03-02T13:24:52;94372.38;;;14.71;66.69
37892;BME280;45797;47.466;9.486;2024-03-02T13:30:19;94369.84;;;14.86;66.32
37892;BME280;45797;47.466;9.486;2024-03-02T13:35:43;94375.31;;;14.76;66.60
37892;BME280;45797;47.466;9.486;2024-03-02T13:41:04;94371.47;;;14.48;67.31
37892;BME280;45797;47.466;9.486;2024-03-02T13:46:25;94376.63;;;14.25;67.85
37892;BME280;45797;47.466;9.486;2024-03-02T13:51:54;94361.53;;;14.03;68.04
37892;BME280;45797;47.466;9.486;2024-03-02T13:57:25;94361.03;;;13.91;68.50
37892;BME280;45797;47.466;9.486;2024-03-02T14:02:52;94350.50;;;13.99;67.95
37892;BME280;45797;47.466;9.486;2024-03-02T14:08:16;94346.84;;;14.16;67.72
37892;BME280;45797;47.466;9.486;2024-03-02T14:13:38;94351.09;;;14.25;67.20
37892;BME280;45797;47.466;9.486;2024-03-02T14:19:00;94344.97;;;14.41;66.91
37892;BME280;45797;47.466;9.486;2024-03-02T14:24:37;94337.19;;;14.56;66.65
37892;BME280;45797;47.466;9.486;2024-03-02T14:29:59;94328.78;;;14.61;66.04
37892;BME280;45797;47.466;9.486;2024-03-02T14:35:20;94328.47;;;14.55;66.04
37892;BME280;45797;47.466;9.486;2024-03-02T14:40:53;94326.50;;;14.49;66.32
37892;BME280;45797;47.466;9.486;2024-03-02T14:46:15;94325.34;;;14.44;66.52
37892;BME280;45797;47.466;9.486;2024-03-02T14:51:36;94314.53;;;14.30;66.31
37892;BME280;45797;47.466;9.486;2024-03-02T14:56:57;94315.91;;;14.10;67.12
37892;BME280;45797;47.466;9.486;2024-03-02T15:02:28;94305.06;;;14.05;67.25
37892;BME280;45797;47.466;9.486;2024-03-02T15:07:52;94310.19;;;13.90;66.96
37892;BME280;45797;47.466;9.486;2024-03-02T15:13:14;94304.44;;;13.95;67.02
37892;BME280;45797;47.466;9.486;2024-03-02T15:18:44;94296.53;;;14.03;66.97
37892;BME280;45797;47.466;9.486;2024-03-02T15:24:07;94279.88;;;14.11;67.00
37892;BME280;45797;47.466;9.486;2024-03-02T15:29:29;94268.50;;;14.10;66.90
37892;BME280;45797;47.466;9.486;2024-03-02T15:34:53;94264.59;;;14.06;66.38
37892;BME280;45797;47.466;9.486;2024-03-02T15:40:13;94275.50;;;13.95;66.75
37892;BME280;45797;47.466;9.486;2024-03-02T15:45:36;94279.16;;;13.78;67.55
37892;BME280;45797;47.466;9.486;2024-03-02T15:51:02;94263.19;;;13.71;67.22
37892;BME280;45797;47.466;9.486;2024-03-02T15:56:44;94271.78;;;13.65;67.59
37892;BME280;45797;47.466;9.486;2024-03-02T16:02:14;94263.72;;;13.58;67.45
37892;BME280;45797;47.466;9.486;2024-03-02T16:07:53;94263.91;;;13.40;67.96
37892;BME280;45797;47.466;9.486;2024-03-02T16:13:14;94261.78;;;13.28;68.66
37892;BME280;45797;47.466;9.486;2024-03-02T16:18:39;94254.50;;;13.13;68.57
37892;BME280;45797;47.466;9.486;2024-03-02T16:24:09;94247.31;;;12.99;69.30
37892;BME280;45797;47.466;9.486;2024-03-02T16:29:30;94239.41;;;12.91;69.06
37892;BME280;45797;47.466;9.486;2024-03-02T16:35:01;94237.09;;;12.80;68.94
37892;BME280;45797;47.466;9.486;2024-03-02T16:40:22;94234.63;;;12.70;69.50
37892;BME280;45797;47.466;9.486;2024-03-02T16:46:03;94244.59;;;12.58;69.44
37892;BME280;45797;47.466;9.486;2024-03-02T16:51:25;94265.59;;;12.50;69.30
37892;BME280;45797;47.466;9.486;2024-03-02T16:57:18;94275.41;;;12.32;69.79
37892;BME280;45797;47.466;9.486;2024-03-02T17:02:39;94274.69;;;12.22;69.65
37892;BME280;45797;47.466;9.486;2024-03-02T17:08:01;94273.72;;;12.15;70.40
37892;BME280;45797;47.466;9.486;2024-03-02T17:13:21;94271.69;;;12.09;70.39
37892;BME280;45797;47.466;9.486;2024-03-02T17:18:42;94266.13;;;12.04;70.10
37892;BME280;45797;47.466;9.486;2024-03-02T17:24:03;94269.53;;;11.96;70.39
37892;BME280;45797;47.466;9.486;2024-03-02T17:29:23;94270.97;;;11.90;70.53
37892;BME280;45797;47.466;9.486;2024-03-02T17:34:47;94263.69;;;11.84;70.69
37892;BME280;45797;47.466;9.486;2024-03-02T17:40:09;94260.06;;;11.77;70.88
37892;BME280;45797;47.466;9.486;2024-03-02T17:45:32;94256.06;;;11.73;70.81
37892;BME280;45797;47.466;9.486;2024-03-02T17:50:54;94259.84;;;11.70;70.75
37892;BME280;45797;47.466;9.486;2024-03-02T17:56:17;94252.28;;;11.67;70.61
37892;BME280;45797;47.466;9.486;2024-03-02T18:01:39;94255.38;;;11.63;70.31
37892;BME280;45797;47.466;9.486;2024-03-02T18:07:12;94253.00;;;11.52;70.83
37892;BME280;45797;47.466;9.486;2024-03-02T18:12:33;94244.81;;;11.55;70.80
37892;BME280;45797;47.466;9.486;2024-03-02T18:17:54;94235.22;;;11.63;69.89
37892;BME280;45797;47.466;9.486;2024-03-02T18:23:14;94227.88;;;11.67;70.21
37892;BME280;45797;47.466;9.486;2024-03-02T18:28:36;94209.81;;;11.64;69.42
37892;BME280;45797;47.466;9.486;2024-03-02T18:33:56;94208.03;;;11.72;69.61
37892;BME280;45797;47.466;9.486;2024-03-02T18:39:21;94205.63;;;11.79;69.49
37892;BME280;45797;47.466;9.486;2024-03-02T18:44:44;94213.19;;;11.82;69.02
37892;BME280;45797;47.466;9.486;2024-03-02T18:50:15;94199.63;;;11.87;68.67
37892;BME280;45797;47.466;9.486;2024-03-02T18:55:40;94189.63;;;11.90;68.59
37892;BME280;45797;47.466;9.486;2024-03-02T19:01:14;94173.56;;;11.93;68.49
37892;BME280;45797;47.466;9.486;2024-03-02T19:06:37;94164.06;;;12.00;67.96
37892;BME280;45797;47.466;9.486;2024-03-02T19:12:03;94188.34;;;12.02;67.83
37892;BME280;45797;47.466;9.486;2024-03-02T19:17:25;94160.50;;;12.10;67.73
37892;BME280;45797;47.466;9.486;2024-03-02T19:22:48;94149.03;;;12.19;66.61
37892;BME280;45797;47.466;9.486;2024-03-02T19:28:09;94138.06;;;12.23;66.61
37892;BME280;45797;47.466;9.486;2024-03-02T19:33:29;94147.72;;;12.31;65.73
37892;BME280;45797;47.466;9.486;2024-03-02T19:39:02;94136.59;;;12.37;65.91
37892;BME280;45797;47.466;9.486;2024-03-02T19:44:25;94135.94;;;12.43;65.28
37892;BME280;45797;47.466;9.486;2024-03-02T19:49:53;94146.13;;;12.46;65.16
37892;BME280;45797;47.466;9.486;2024-03-02T19:55:16;94142.84;;;12.52;64.64
37892;BME280;45797;47.466;9.486;2024-03-02T20:00:47;94128.22;;;12.58;64.25
37892;BME280;45797;47.466;9.486;2024-03-02T20:06:09;94147.94;;;12.62;64.60
37892;BME280;45797;47.466;9.486;2024-03-02T20:11:33;94129.84;;;12.67;64.42
37892;BME280;45797;47.466;9.486;2024-03-02T20:17:01;94127.06;;;12.77;63.72
37892;BME280;45797;47.466;9.486;2024-03-02T20:22:22;94148.41;;;12.82;63.75
37892;BME280;45797;47.466;9.486;2024-03-02T20:27:43;94134.63;;;12.80;63.52
37892;BME280;45797;47.466;9.486;2024-03-02T20:33:20;94153.03;;;12.80;63.15
37892;BME280;45797;47.466;9.486;2024-03-02T20:38:41;94150.72;;;12.85;62.76
37892;BME280;45797;47.466;9.486;2024-03-02T20:44:17;94149.41;;;12.81;63.03
37892;BME280;45797;47.466;9.486;2024-03-02T20:49:39;94134.63;;;12.80;62.55
37892;BME280;45797;47.466;9.486;2024-03-02T20:55:06;94135.28;;;12.82;62.53
37892;BME280;45797;47.466;9.486;2024-03-02T21:00:28;94125.91;;;12.87;62.10
37892;BME280;45797;47.466;9.486;2024-03-02T21:05:49;94119.50;;;12.90;61.93
37892;BME280;45797;47.466;9.486;2024-03-02T21:11:20;94112.94;;;12.94;61.57
37892;BME280;45797;47.466;9.486;2024-03-02T21:16:43;94108.13;;;12.98;61.20
37892;BME280;45797;47.466;9.486;2024-03-02T21:22:04;94112.59;;;12.97;61.22
37892;BME280;45797;47.466;9.486;2024-03-02T21:27:26;94129.69;;;13.01;61.20
37892;BME280;45797;47.466;9.486;2024-03-02T21:32:47;94117.66;;;13.07;61.09
37892;BME280;45797;47.466;9.486;2024-03-02T21:38:09;94108.63;;;13.09;60.65
37892;BME280;45797;47.466;9.486;2024-03-02T21:43:38;94097.44;;;13.07;60.45
37892;BME280;45797;47.466;9.486;2024-03-02T21:49:03;94095.00;;;13.06;60.47
37892;BME280;45797;47.466;9.486;2024-03-02T21:54:33;94089.06;;;13.12;60.27
37892;BME280;45797;47.466;9.486;2024-03-02T22:00:01;94079.03;;;13.15;59.87
37892;BME280;45797;47.466;9.486;2024-03-02T22:05:22;94077.06;;;13.18;59.63
37892;BME280;45797;47.466;9.486;2024-03-02T22:10:46;94099.59;;;13.20;59.30
37892;BME280;45797;47.466;9.486;2024-03-02T22:16:09;94091.72;;;13.20;59.28
37892;BME280;45797;47.466;9.486;2024-03-02T22:21:30;94089.91;;;13.21;59.19
37892;BME280;45797;47.466;9.486;2024-03-02T22:26:50;94079.69;;;13.18;59.23
37892;BME280;45797;47.466;9.486;2024-03-02T22:32:17;94078.72;;;13.19;58.98
37892;BME280;45797;47.466;9.486;2024-03-02T22:37:38;94095.16;;;13.21;58.97
37892;BME280;45797;47.466;9.486;2024-03-02T22:43:01;94102.38;;;13.19;58.33
37892;BME280;45797;47.466;9.486;2024-03-02T22:48:34;94093.16;;;13.14;58.45
37892;BME280;45797;47.466;9.486;2024-03-02T22:54:12;94099.41;;;13.13;58.31
37892;BME280;45797;47.466;9.486;2024-03-02T22:59:34;94105.00;;;13.19;58.38
37892;BME280;45797;47.466;9.486;2024-03-02T23:05:05;94092.84;;;13.18;58.38
37892;BME280;45797;47.466;9.486;2024-03-02T23:10:26;94108.31;;;13.21;58.23
37892;BME280;45797;47.466;9.486;2024-03-02T23:15:47;94103.03;;;13.21;58.06
37892;BME280;45797;47.466;9.486;2024-03-02T23:21:10;94085.28;;;13.23;57.41
37892;BME280;45797;47.466;9.486;2024-03-02T23:26:31;94096.16;;;13.20;58.06
37892;BME280;45797;47.466;9.486;2024-03-02T23:32:01;94091.84;;;13.19;58.07
37892;BME280;45797;47.466;9.486;2024-03-02T23:37:32;94082.00;;;13.21;57.88
37892;BME280;45797;47.466;9.486;2024-03-02T23:42:55;94087.44;;;13.27;57.42
37892;BME280;45797;47.466;9.486;2024-03-02T23:48:23;94085.25;;;13.31;57.27
37892;BME280;45797;47.466;9.486;2024-03-02T23:53:54;94080.31;;;13.36;57.27
37892;BME280;45797;47.466;9.486;2024-03-02T23:59:15;94076.34;;;13.40;56.14
